createdAt,value
2022-11-20T00:00:28.763Z,0.00
2022-11-20T00:01:23.854Z,0.00
2022-11-20T00:02:18.892Z,0.00
2022-11-20T00:03:13.931Z,0.00
2022-11-20T00:04:09.011Z,0.00
2022-11-20T00:05:03.962Z,0.00
2022-11-20T00:05:59.078Z,0.00
2022-11-20T00:06:54.295Z,0.00
2022-11-20T00:07:49.429Z,0.00
2022-11-20T00:08:44.408Z,0.00
2022-11-20T00:09:39.551Z,0.00
2022-11-20T00:10:34.495Z,0.00
2022-11-20T00:11:29.687Z,0.00
2022-11-20T00:12:24.687Z,0.00
2022-11-20T00:13:19.788Z,0.00
2022-11-20T00:14:14.818Z,0.00
2022-11-20T00:15:09.929Z,0.00
2022-11-20T00:16:04.903Z,0.00
2022-11-20T00:17:00.050Z,0.00
2022-11-20T00:17:54.994Z,0.00
2022-11-20T00:18:50.182Z,0.00
2022-11-20T00:19:45.152Z,0.00
2022-11-20T00:20:40.229Z,0.00
2022-11-20T00:21:35.250Z,0.00
2022-11-20T00:22:30.258Z,0.00
2022-11-20T00:23:25.323Z,0.00
2022-11-20T00:24:20.433Z,0.00
2022-11-20T00:25:15.441Z,0.00
2022-11-20T00:26:10.562Z,0.00
2022-11-20T00:27:05.607Z,0.00
2022-11-20T00:28:00.730Z,0.00
2022-11-20T00:28:55.741Z,0.00
2022-11-20T00:29:50.861Z,0.00
2022-11-20T00:30:45.870Z,0.00
2022-11-20T00:31:40.898Z,0.00
2022-11-20T00:32:35.858Z,0.00
2022-11-20T00:33:30.992Z,0.00
2022-11-20T00:34:26.017Z,0.00
2022-11-20T00:35:21.033Z,0.00
2022-11-20T00:36:16.040Z,0.00
2022-11-20T00:37:13.756Z,0.00
2022-11-20T00:38:08.744Z,0.00
2022-11-20T00:39:03.757Z,0.00
2022-11-20T00:39:58.716Z,0.00
2022-11-20T00:40:54.846Z,0.00
2022-11-20T00:41:48.885Z,0.00
2022-11-20T00:42:43.914Z,0.00
2022-11-20T00:43:39.025Z,0.00
2022-11-20T00:44:34.197Z,0.00
2022-11-20T00:45:29.429Z,0.00
2022-11-20T00:46:24.469Z,0.00
2022-11-20T00:47:19.455Z,0.00
2022-11-20T00:48:14.621Z,0.00
2022-11-20T00:49:09.566Z,0.00
2022-11-20T00:50:04.663Z,0.00
2022-11-20T00:51:00.251Z,0.00
2022-11-20T00:51:55.414Z,0.00
2022-11-20T00:52:51.354Z,0.00
2022-11-20T00:53:46.615Z,0.00
2022-11-20T00:54:41.904Z,0.00
2022-11-20T00:55:37.632Z,0.00
2022-11-20T00:56:32.756Z,0.00
2022-11-20T00:57:27.857Z,0.00
2022-11-20T00:58:24.296Z,0.00
2022-11-20T00:59:20.069Z,0.00
2022-11-20T01:00:15.398Z,0.00
2022-11-20T01:01:10.518Z,0.00
2022-11-20T01:02:05.667Z,0.00
2022-11-20T01:03:01.365Z,0.00
2022-11-20T01:03:56.503Z,0.00
2022-11-20T01:04:52.450Z,0.00
2022-11-20T01:05:47.522Z,0.00
2022-11-20T01:06:42.628Z,0.00
2022-11-20T01:07:38.611Z,0.00
2022-11-20T01:08:33.805Z,0.00
2022-11-20T01:09:29.177Z,0.00
2022-11-20T01:10:25.265Z,0.00
2022-11-20T01:11:20.521Z,0.00
2022-11-20T01:12:16.370Z,0.00
2022-11-20T01:13:11.471Z,0.00
2022-11-20T01:14:06.601Z,0.00
2022-11-20T01:15:02.452Z,0.00
2022-11-20T01:15:57.574Z,0.00
2022-11-20T01:16:53.525Z,0.00
2022-11-20T01:17:48.682Z,0.00
2022-11-20T01:18:43.681Z,0.00
2022-11-20T01:19:39.521Z,0.00
2022-11-20T01:20:34.761Z,0.00
2022-11-20T01:21:29.869Z,0.00
2022-11-20T01:22:26.213Z,0.00
2022-11-20T01:23:21.509Z,0.00
2022-11-20T01:24:17.312Z,0.00
2022-11-20T01:25:12.540Z,0.00
2022-11-20T01:26:07.813Z,0.00
2022-11-20T01:27:02.791Z,0.00
2022-11-20T01:27:59.243Z,0.00
2022-11-20T01:28:54.604Z,0.00
2022-11-20T01:29:49.724Z,0.00
2022-11-20T01:30:45.726Z,0.00
2022-11-20T01:31:40.728Z,0.00
2022-11-20T01:32:35.958Z,0.00
2022-11-20T01:33:32.144Z,0.00
2022-11-20T01:34:27.434Z,0.00
2022-11-20T01:35:23.409Z,0.00
2022-11-20T01:36:18.418Z,0.00
2022-11-20T01:37:13.483Z,0.00
2022-11-20T01:38:09.311Z,0.00
2022-11-20T01:39:04.409Z,0.00
2022-11-20T01:40:00.373Z,0.00
2022-11-20T01:40:55.359Z,0.00
2022-11-20T01:41:50.640Z,0.00
2022-11-20T01:42:46.290Z,0.00
2022-11-20T01:43:41.409Z,0.00
2022-11-20T01:44:36.479Z,0.00
2022-11-20T01:45:31.556Z,0.00
2022-11-20T01:46:26.874Z,0.00
2022-11-20T01:47:21.843Z,0.00
2022-11-20T01:48:16.985Z,0.00
2022-11-20T01:49:13.056Z,0.00
2022-11-20T01:50:08.224Z,0.00
2022-11-20T01:51:03.554Z,0.00
2022-11-20T01:51:59.223Z,0.00
2022-11-20T01:52:54.376Z,0.00
2022-11-20T01:53:49.652Z,0.00
2022-11-20T01:54:44.875Z,0.00
2022-11-20T01:55:39.828Z,0.00
2022-11-20T01:56:34.941Z,0.00
2022-11-20T01:57:29.941Z,0.00
2022-11-20T01:58:25.042Z,0.00
2022-11-20T01:59:20.303Z,0.00
2022-11-20T02:00:15.119Z,0.00
2022-11-20T02:01:10.129Z,0.00
2022-11-20T02:02:05.101Z,0.00
2022-11-20T02:03:00.102Z,0.00
2022-11-20T02:03:55.200Z,0.00
2022-11-20T02:04:50.279Z,0.00
2022-11-20T02:05:45.216Z,0.00
2022-11-20T02:06:40.306Z,0.00
2022-11-20T02:07:35.428Z,0.00
2022-11-20T02:08:30.526Z,0.00
2022-11-20T02:09:25.622Z,0.00
2022-11-20T02:10:20.775Z,0.00
2022-11-20T02:11:15.735Z,0.00
2022-11-20T02:12:10.844Z,0.00
2022-11-20T02:13:05.915Z,0.00
2022-11-20T02:14:01.143Z,0.00
2022-11-20T02:14:56.136Z,0.00
2022-11-20T02:15:51.233Z,0.00
2022-11-20T02:16:46.212Z,0.00
2022-11-20T02:17:41.339Z,0.00
2022-11-20T02:18:36.395Z,0.00
2022-11-20T02:19:31.563Z,0.00
2022-11-20T02:20:26.498Z,0.00
2022-11-20T02:21:21.621Z,0.00
2022-11-20T02:22:16.603Z,0.00
2022-11-20T02:23:11.755Z,0.00
2022-11-20T02:24:07.000Z,0.00
2022-11-20T02:25:02.132Z,0.00
2022-11-20T02:25:57.178Z,0.00
2022-11-20T02:26:52.301Z,0.00
2022-11-20T02:27:47.410Z,0.00
2022-11-20T02:28:42.617Z,0.00
2022-11-20T02:29:37.609Z,0.00
2022-11-20T02:30:32.680Z,0.00
2022-11-20T02:31:27.675Z,0.00
2022-11-20T02:32:22.741Z,0.00
2022-11-20T02:33:17.831Z,0.00
2022-11-20T02:34:12.861Z,0.00
2022-11-20T02:35:07.898Z,0.00
2022-11-20T02:36:03.177Z,0.00
2022-11-20T02:36:58.853Z,0.00
2022-11-20T02:37:54.145Z,0.00
2022-11-20T02:38:49.975Z,0.00
2022-11-20T02:39:45.092Z,0.00
2022-11-20T02:40:40.316Z,0.00
2022-11-20T02:41:36.134Z,0.00
2022-11-20T02:42:31.232Z,0.00
2022-11-20T02:43:27.297Z,0.00
2022-11-20T02:44:22.728Z,0.00
2022-11-20T02:45:17.867Z,0.00
2022-11-20T02:46:13.631Z,0.00
2022-11-20T02:47:08.839Z,0.00
2022-11-20T02:48:03.979Z,0.00
2022-11-20T02:48:59.907Z,0.00
2022-11-20T02:49:54.948Z,0.00
2022-11-20T02:50:50.760Z,0.00
2022-11-20T02:51:45.835Z,0.00
2022-11-20T02:52:41.117Z,0.00
2022-11-20T02:53:36.763Z,0.00
2022-11-20T02:54:31.970Z,0.00
2022-11-20T02:55:27.018Z,0.00
2022-11-20T02:56:23.411Z,0.00
2022-11-20T02:57:18.643Z,0.00
2022-11-20T02:58:14.309Z,0.00
2022-11-20T02:59:09.395Z,0.00
2022-11-20T03:00:04.798Z,0.00
2022-11-20T03:01:00.635Z,0.00
2022-11-20T03:01:56.002Z,0.00
2022-11-20T03:02:51.809Z,0.00
2022-11-20T03:03:46.802Z,0.00
2022-11-20T03:04:41.919Z,0.00
2022-11-20T03:05:37.754Z,0.00
2022-11-20T03:06:32.887Z,0.00
2022-11-20T03:07:28.312Z,0.00
2022-11-20T03:08:24.310Z,0.00
2022-11-20T03:09:19.842Z,0.00
2022-11-20T03:10:15.388Z,0.00
2022-11-20T03:11:10.461Z,0.00
2022-11-20T03:12:05.849Z,0.00
2022-11-20T03:13:01.453Z,0.00
2022-11-20T03:13:56.663Z,0.00
2022-11-20T03:14:53.419Z,0.00
2022-11-20T03:15:47.499Z,0.00
2022-11-20T03:16:43.006Z,0.00
2022-11-20T03:17:39.695Z,0.00
2022-11-20T03:18:34.667Z,0.00
2022-11-20T03:19:29.797Z,0.00
2022-11-20T03:20:26.362Z,0.00
2022-11-20T03:21:21.349Z,0.00
2022-11-20T03:22:16.561Z,0.00
2022-11-20T03:23:12.816Z,0.00
2022-11-20T03:24:08.096Z,0.00
2022-11-20T03:25:03.731Z,0.00
2022-11-20T03:25:58.971Z,0.00
2022-11-20T03:26:54.291Z,0.00
2022-11-20T03:27:49.931Z,0.00
2022-11-20T03:28:45.022Z,0.00
2022-11-20T03:29:41.089Z,0.00
2022-11-20T03:30:36.238Z,0.00
2022-11-20T03:31:31.207Z,0.00
2022-11-20T03:32:27.055Z,0.00
2022-11-20T03:33:22.279Z,0.00
2022-11-20T03:34:17.475Z,0.00
2022-11-20T03:35:12.627Z,0.00
2022-11-20T03:36:07.752Z,0.00
2022-11-20T03:37:02.798Z,0.00
2022-11-20T03:37:57.737Z,0.00
2022-11-20T03:38:52.863Z,0.00
2022-11-20T03:39:48.105Z,0.00
2022-11-20T03:40:43.333Z,0.00
2022-11-20T03:41:38.332Z,0.00
2022-11-20T03:42:33.369Z,0.00
2022-11-20T03:43:28.406Z,0.00
2022-11-20T03:44:23.558Z,0.00
2022-11-20T03:45:18.635Z,0.00
2022-11-20T03:46:13.723Z,0.00
2022-11-20T03:47:08.810Z,0.00
2022-11-20T03:48:03.904Z,0.00
2022-11-20T03:48:58.971Z,0.00
2022-11-20T03:49:54.081Z,0.00
2022-11-20T03:50:49.111Z,0.00
2022-11-20T03:51:44.250Z,0.00
2022-11-20T03:52:39.313Z,0.00
2022-11-20T03:53:34.438Z,0.00
2022-11-20T03:54:29.519Z,0.00
2022-11-20T03:55:24.658Z,0.00
2022-11-20T03:56:19.919Z,0.00
2022-11-20T03:57:15.079Z,0.00
2022-11-20T03:58:10.047Z,0.00
2022-11-20T03:59:08.218Z,0.00
2022-11-20T04:00:03.297Z,0.00
2022-11-20T04:01:02.767Z,0.00
2022-11-20T04:01:57.865Z,0.00
2022-11-20T04:02:52.957Z,0.00
2022-11-20T04:03:48.297Z,0.00
2022-11-20T04:04:43.185Z,0.00
2022-11-20T04:05:39.512Z,0.00
2022-11-20T04:06:34.724Z,0.00
2022-11-20T04:07:30.085Z,0.00
2022-11-20T04:08:25.635Z,0.00
2022-11-20T04:09:20.902Z,0.00
2022-11-20T04:10:16.661Z,0.00
2022-11-20T04:11:11.692Z,0.00
2022-11-20T04:12:07.063Z,0.00
2022-11-20T04:13:02.909Z,0.00
2022-11-20T04:13:57.890Z,0.00
2022-11-20T04:14:52.963Z,0.00
2022-11-20T04:15:49.601Z,0.00
2022-11-20T04:16:44.547Z,0.00
2022-11-20T04:17:40.370Z,0.00
2022-11-20T04:18:35.449Z,0.00
2022-11-20T04:19:30.586Z,0.00
2022-11-20T04:20:26.397Z,0.00
2022-11-20T04:21:21.706Z,0.00
2022-11-20T04:22:17.481Z,0.00
2022-11-20T04:23:12.878Z,0.00
2022-11-20T04:24:08.043Z,0.00
2022-11-20T04:25:03.864Z,0.00
2022-11-20T04:25:58.987Z,0.00
2022-11-20T04:26:54.212Z,0.00
2022-11-20T04:27:50.477Z,0.00
2022-11-20T04:28:45.593Z,0.00
2022-11-20T04:29:41.385Z,0.00
2022-11-20T04:30:36.524Z,0.00
2022-11-20T04:31:31.662Z,0.00
2022-11-20T04:32:27.491Z,0.00
2022-11-20T04:33:22.594Z,0.00
2022-11-20T04:34:18.574Z,0.00
2022-11-20T04:35:13.537Z,0.00
2022-11-20T04:36:08.957Z,0.00
2022-11-20T04:37:04.639Z,0.00
2022-11-20T04:37:59.879Z,0.00
2022-11-20T04:38:57.036Z,0.00
2022-11-20T04:39:51.340Z,0.00
2022-11-20T04:40:46.472Z,0.00
2022-11-20T04:41:42.270Z,0.00
2022-11-20T04:42:37.346Z,0.00
2022-11-20T04:43:32.762Z,0.00
2022-11-20T04:44:28.458Z,0.00
2022-11-20T04:45:23.575Z,0.00
2022-11-20T04:46:19.405Z,0.00
2022-11-20T04:47:14.594Z,0.00
2022-11-20T04:48:09.829Z,0.00
2022-11-20T04:49:05.544Z,0.00
2022-11-20T04:50:00.722Z,0.00
2022-11-20T04:50:55.894Z,0.00
2022-11-20T04:51:52.241Z,0.00
2022-11-20T04:52:47.374Z,0.00
2022-11-20T04:53:42.443Z,0.00
2022-11-20T04:54:38.851Z,0.00
2022-11-20T04:55:33.971Z,0.00
2022-11-20T04:56:29.938Z,0.00
2022-11-20T04:57:24.870Z,0.00
2022-11-20T04:58:20.026Z,0.00
2022-11-20T04:59:15.879Z,0.00
2022-11-20T05:00:11.118Z,0.00
2022-11-20T05:01:07.103Z,0.00
2022-11-20T05:02:02.228Z,0.00
2022-11-20T05:02:57.261Z,0.00
2022-11-20T05:03:53.225Z,0.00
2022-11-20T05:04:48.451Z,0.00
2022-11-20T05:05:43.645Z,0.00
2022-11-20T05:06:38.724Z,0.00
2022-11-20T05:07:33.887Z,0.00
2022-11-20T05:08:28.875Z,0.00
2022-11-20T05:09:24.328Z,0.00
2022-11-20T05:10:19.073Z,0.00
2022-11-20T05:11:14.194Z,0.00
2022-11-20T05:12:09.164Z,0.00
2022-11-20T05:13:04.173Z,0.00
2022-11-20T05:13:59.182Z,0.00
2022-11-20T05:14:54.281Z,0.00
2022-11-20T05:15:49.244Z,0.00
2022-11-20T05:16:44.330Z,0.00
2022-11-20T05:17:39.283Z,0.00
2022-11-20T05:18:34.409Z,0.00
2022-11-20T05:19:29.514Z,0.00
2022-11-20T05:20:24.640Z,0.00
2022-11-20T05:21:19.704Z,0.00
2022-11-20T05:22:14.790Z,0.00
2022-11-20T05:23:09.787Z,0.00
2022-11-20T05:24:04.908Z,0.00
2022-11-20T05:25:00.020Z,0.00
2022-11-20T05:25:58.899Z,0.00
2022-11-20T05:26:50.348Z,0.00
2022-11-20T05:27:45.765Z,0.00
2022-11-20T05:28:40.859Z,0.00
2022-11-20T05:29:35.975Z,0.00
2022-11-20T05:30:33.905Z,0.00
2022-11-20T05:31:29.017Z,0.00
2022-11-20T05:32:28.018Z,0.00
2022-11-20T05:33:23.128Z,0.00
2022-11-20T05:34:18.265Z,0.00
2022-11-20T05:35:13.361Z,0.00
2022-11-20T05:36:08.724Z,0.00
2022-11-20T05:37:03.964Z,0.00
2022-11-20T05:37:59.163Z,0.00
2022-11-20T05:38:59.797Z,0.00
2022-11-20T05:39:51.067Z,0.00
2022-11-20T05:40:45.371Z,0.00
2022-11-20T05:41:41.052Z,0.00
2022-11-20T05:42:36.343Z,0.00
2022-11-20T05:43:31.598Z,0.00
2022-11-20T05:44:27.176Z,0.00
2022-11-20T05:45:22.438Z,0.00
2022-11-20T05:46:18.932Z,0.00
2022-11-20T05:47:13.396Z,0.00
2022-11-20T05:48:08.939Z,0.00
2022-11-20T05:49:03.947Z,0.00
2022-11-20T05:49:58.965Z,0.00
2022-11-20T05:50:54.064Z,0.00
2022-11-20T05:51:49.186Z,0.00
2022-11-20T05:52:44.144Z,0.00
2022-11-20T05:53:41.381Z,0.00
2022-11-20T05:54:35.210Z,0.00
2022-11-20T05:55:29.285Z,1.00
2022-11-20T05:56:24.348Z,1.00
2022-11-20T05:57:20.164Z,0.00
2022-11-20T05:58:15.263Z,1.00
2022-11-20T05:59:10.674Z,1.00
2022-11-20T06:00:06.366Z,1.00
2022-11-20T06:01:01.592Z,1.00
2022-11-20T06:01:57.591Z,2.00
2022-11-20T06:02:52.693Z,2.00
2022-11-20T06:03:48.131Z,2.00
2022-11-20T06:04:43.756Z,2.00
2022-11-20T06:05:39.038Z,2.00
2022-11-20T06:06:34.122Z,2.00
2022-11-20T06:07:30.756Z,3.00
2022-11-20T06:08:25.770Z,4.00
2022-11-20T06:09:21.771Z,5.00
2022-11-20T06:10:16.737Z,5.00
2022-11-20T06:11:11.876Z,6.00
2022-11-20T06:12:07.705Z,8.00
2022-11-20T06:13:03.115Z,10.00
2022-11-20T06:13:59.002Z,12.00
2022-11-20T06:14:54.138Z,14.00
2022-11-20T06:15:49.451Z,16.00
2022-11-20T06:16:45.326Z,19.00
2022-11-20T06:17:40.656Z,22.00
2022-11-20T06:18:35.864Z,26.00
2022-11-20T06:19:32.262Z,27.00
2022-11-20T06:20:27.414Z,34.00
2022-11-20T06:21:23.282Z,39.00
2022-11-20T06:22:18.484Z,46.00
2022-11-20T06:23:13.748Z,52.00
2022-11-20T06:24:09.881Z,59.00
2022-11-20T06:25:04.997Z,61.00
2022-11-20T06:26:01.088Z,65.00
2022-11-20T06:26:56.090Z,69.00
2022-11-20T06:27:51.374Z,80.00
2022-11-20T06:28:47.103Z,88.00
2022-11-20T06:29:42.439Z,97.00
2022-11-20T06:30:37.589Z,105.00
2022-11-20T06:31:34.033Z,112.00
2022-11-20T06:32:29.342Z,124.00
2022-11-20T06:33:25.137Z,133.00
2022-11-20T06:34:20.211Z,154.00
2022-11-20T06:35:15.685Z,171.00
2022-11-20T06:36:11.433Z,187.00
2022-11-20T06:37:06.726Z,191.00
2022-11-20T06:38:02.539Z,227.00
2022-11-20T06:38:57.888Z,232.00
2022-11-20T06:39:53.142Z,278.00
2022-11-20T06:40:48.254Z,269.00
2022-11-20T06:41:43.602Z,290.00
2022-11-20T06:42:40.175Z,302.00
2022-11-20T06:43:35.290Z,288.00
2022-11-20T06:44:31.265Z,298.00
2022-11-20T06:45:26.382Z,334.00
2022-11-20T06:46:21.700Z,323.00
2022-11-20T06:47:17.418Z,342.00
2022-11-20T06:48:12.853Z,358.00
2022-11-20T06:49:08.208Z,365.00
2022-11-20T06:50:04.454Z,389.00
2022-11-20T06:50:59.761Z,386.00
2022-11-20T06:51:55.470Z,423.00
2022-11-20T06:52:50.863Z,460.00
2022-11-20T06:53:46.289Z,504.00
2022-11-20T06:54:42.163Z,559.00
2022-11-20T06:55:37.295Z,609.00
2022-11-20T06:56:33.096Z,614.00
2022-11-20T06:57:28.416Z,663.00
2022-11-20T06:58:23.849Z,715.00
2022-11-20T06:59:19.164Z,758.00
2022-11-20T07:00:14.315Z,774.00
2022-11-20T07:01:09.770Z,965.00
2022-11-20T07:02:05.289Z,1037.00
2022-11-20T07:03:00.528Z,1193.00
2022-11-20T07:03:55.663Z,1382.00
2022-11-20T07:04:52.375Z,1406.00
2022-11-20T07:05:47.651Z,1286.00
2022-11-20T07:06:43.076Z,1164.00
2022-11-20T07:07:41.953Z,1118.00
2022-11-20T07:08:37.150Z,1129.00
2022-11-20T07:09:32.479Z,1081.00
2022-11-20T07:10:27.778Z,1119.00
2022-11-20T07:11:22.812Z,1179.00
2022-11-20T07:12:18.021Z,1163.00
2022-11-20T07:13:12.916Z,1211.00
2022-11-20T07:14:08.056Z,1218.00
2022-11-20T07:15:03.105Z,1268.00
2022-11-20T07:15:58.139Z,1292.00
2022-11-20T07:16:53.508Z,1340.00
2022-11-20T07:17:48.571Z,1251.00
2022-11-20T07:18:48.874Z,1274.00
2022-11-20T07:19:39.677Z,1319.00
2022-11-20T07:20:33.774Z,1308.00
2022-11-20T07:21:28.935Z,1314.00
2022-11-20T07:22:24.007Z,1268.00
2022-11-20T07:23:19.083Z,1319.00
2022-11-20T07:24:14.138Z,1486.00
2022-11-20T07:25:09.163Z,1515.00
2022-11-20T07:26:04.252Z,1565.00
2022-11-20T07:26:59.340Z,1654.00
2022-11-20T07:27:54.354Z,1720.00
2022-11-20T07:28:49.661Z,1852.00
2022-11-20T07:29:44.852Z,1865.00
2022-11-20T07:30:40.271Z,1806.00
2022-11-20T07:31:35.434Z,1811.00
2022-11-20T07:32:30.751Z,1801.00
2022-11-20T07:33:26.109Z,1889.00
2022-11-20T07:34:21.307Z,1954.00
2022-11-20T07:35:16.720Z,2087.00
2022-11-20T07:36:12.239Z,2136.00
2022-11-20T07:37:10.315Z,2298.00
2022-11-20T07:38:03.027Z,2560.00
2022-11-20T07:38:58.383Z,2582.00
2022-11-20T07:39:53.880Z,2971.00
2022-11-20T07:40:49.106Z,3225.00
2022-11-20T07:41:44.484Z,3369.00
2022-11-20T07:42:39.576Z,3309.00
2022-11-20T07:43:39.902Z,3458.00
2022-11-20T07:44:30.687Z,3369.00
2022-11-20T07:45:24.814Z,3177.00
2022-11-20T07:46:20.032Z,2726.00
2022-11-20T07:47:15.095Z,2142.00
2022-11-20T07:48:10.170Z,1883.00
2022-11-20T07:49:07.923Z,1700.00
2022-11-20T07:50:03.473Z,1665.00
2022-11-20T07:50:58.610Z,1691.00
2022-11-20T07:51:53.961Z,1666.00
2022-11-20T07:52:49.362Z,1735.00
2022-11-20T07:53:44.780Z,1769.00
2022-11-20T07:54:40.101Z,1870.00
2022-11-20T07:55:35.216Z,2094.00
2022-11-20T07:56:30.677Z,2020.00
2022-11-20T07:57:28.462Z,2186.00
2022-11-20T07:58:21.488Z,2258.00
2022-11-20T07:59:16.633Z,2319.00
2022-11-20T08:00:11.958Z,2355.00
2022-11-20T08:01:07.315Z,2539.00
2022-11-20T08:02:02.691Z,2335.00
2022-11-20T08:02:58.161Z,2331.00
2022-11-20T08:03:53.371Z,2297.00
2022-11-20T08:04:50.728Z,2308.00
2022-11-20T08:05:46.165Z,2213.00
2022-11-20T08:06:41.355Z,2166.00
2022-11-20T08:07:36.887Z,2218.00
2022-11-20T08:08:33.781Z,1994.00
2022-11-20T08:09:27.814Z,2106.00
2022-11-20T08:10:23.037Z,2010.00
2022-11-20T08:11:18.492Z,2039.00
2022-11-20T08:12:15.054Z,1989.00
2022-11-20T08:13:10.231Z,1847.00
2022-11-20T08:14:05.741Z,1750.00
2022-11-20T08:15:00.825Z,1645.00
2022-11-20T08:15:56.130Z,1599.00
2022-11-20T08:16:51.613Z,1590.00
2022-11-20T08:18:02.294Z,1654.00
2022-11-20T08:18:43.065Z,1567.00
2022-11-20T08:19:37.259Z,1563.00
2022-11-20T08:20:32.587Z,1604.00
2022-11-20T08:21:27.898Z,1676.00
2022-11-20T08:22:23.340Z,1791.00
2022-11-20T08:23:18.629Z,1857.00
2022-11-20T08:24:14.070Z,1949.00
2022-11-20T08:25:09.269Z,1931.00
2022-11-20T08:26:04.708Z,2054.00
2022-11-20T08:26:59.939Z,2192.00
2022-11-20T08:27:57.853Z,2396.00
2022-11-20T08:28:51.145Z,2703.00
2022-11-20T08:29:46.514Z,2924.00
2022-11-20T08:30:41.879Z,3314.00
2022-11-20T08:31:37.272Z,3247.00
2022-11-20T08:32:32.705Z,3648.00
2022-11-20T08:33:27.939Z,3716.00
2022-11-20T08:34:23.305Z,3806.00
2022-11-20T08:35:18.467Z,3878.00
2022-11-20T08:36:13.432Z,3990.00
2022-11-20T08:37:08.536Z,4142.00
2022-11-20T08:38:03.606Z,3925.00
2022-11-20T08:38:58.688Z,3793.00
2022-11-20T08:39:53.728Z,3967.00
2022-11-20T08:40:48.950Z,4234.00
2022-11-20T08:41:43.919Z,4186.00
2022-11-20T08:42:39.039Z,4228.00
2022-11-20T08:43:34.100Z,4494.00
2022-11-20T08:44:31.931Z,4734.00
2022-11-20T08:45:31.005Z,4815.00
2022-11-20T08:46:23.118Z,5149.00
2022-11-20T08:47:17.186Z,5339.00
2022-11-20T08:48:13.325Z,5401.00
2022-11-20T08:49:08.831Z,4911.00
2022-11-20T08:50:04.081Z,4530.00
2022-11-20T08:50:59.736Z,3968.00
2022-11-20T08:51:55.243Z,3838.00
2022-11-20T08:52:50.458Z,3962.00
2022-11-20T08:53:45.908Z,4105.00
2022-11-20T08:54:41.245Z,4459.00
2022-11-20T08:55:36.847Z,4605.00
2022-11-20T08:56:31.984Z,5336.00
2022-11-20T08:57:27.358Z,5359.00
2022-11-20T08:58:22.731Z,5378.00
2022-11-20T08:59:36.761Z,5364.00
2022-11-20T09:00:14.606Z,5222.00
2022-11-20T09:01:08.957Z,5079.00
2022-11-20T09:02:04.340Z,4738.00
2022-11-20T09:02:59.831Z,4682.00
2022-11-20T09:03:55.242Z,4654.00
2022-11-20T09:04:50.314Z,5141.00
2022-11-20T09:05:45.283Z,5385.00
2022-11-20T09:06:40.363Z,5588.00
2022-11-20T09:07:37.183Z,5691.00
2022-11-20T09:08:32.227Z,5513.00
2022-11-20T09:09:27.188Z,5192.00
2022-11-20T09:10:24.614Z,4639.00
2022-11-20T09:11:17.325Z,4130.00
2022-11-20T09:12:12.388Z,3503.00
2022-11-20T09:13:07.467Z,3108.00
2022-11-20T09:14:02.787Z,2836.00
2022-11-20T09:14:58.425Z,2854.00
2022-11-20T09:15:53.798Z,2710.00
2022-11-20T09:16:49.294Z,2706.00
2022-11-20T09:17:44.507Z,2679.00
2022-11-20T09:18:39.877Z,2430.00
2022-11-20T09:19:36.305Z,2364.00
2022-11-20T09:20:30.696Z,2475.00
2022-11-20T09:21:26.498Z,2655.00
2022-11-20T09:22:21.789Z,2847.00
2022-11-20T09:23:17.012Z,2973.00
2022-11-20T09:24:12.508Z,3142.00
2022-11-20T09:25:07.768Z,3275.00
2022-11-20T09:26:03.132Z,3847.00
2022-11-20T09:26:58.212Z,4310.00
2022-11-20T09:27:53.259Z,4882.00
2022-11-20T09:28:48.357Z,5102.00
2022-11-20T09:29:43.406Z,5537.00
2022-11-20T09:30:38.374Z,5943.00
2022-11-20T09:31:33.546Z,6099.00
2022-11-20T09:32:28.467Z,5417.00
2022-11-20T09:33:23.527Z,4650.00
2022-11-20T09:34:18.843Z,4380.00
2022-11-20T09:35:13.827Z,4461.00
2022-11-20T09:36:08.916Z,4614.00
2022-11-20T09:37:06.462Z,4820.00
2022-11-20T09:37:59.242Z,5407.00
2022-11-20T09:38:54.204Z,5623.00
2022-11-20T09:39:49.735Z,5877.00
2022-11-20T09:40:44.698Z,5940.00
2022-11-20T09:41:42.622Z,5899.00
2022-11-20T09:42:37.688Z,6100.00
2022-11-20T09:43:35.214Z,6040.00
2022-11-20T09:44:28.020Z,5885.00
2022-11-20T09:45:23.124Z,5356.00
2022-11-20T09:46:18.018Z,5055.00
2022-11-20T09:47:13.104Z,4634.00
2022-11-20T09:48:08.178Z,4224.00
2022-11-20T09:49:03.283Z,4313.00
2022-11-20T09:49:58.383Z,4118.00
2022-11-20T09:50:53.632Z,4132.00
2022-11-20T09:51:49.004Z,4166.00
2022-11-20T09:52:44.426Z,4396.00
2022-11-20T09:53:40.043Z,4502.00
2022-11-20T09:54:35.185Z,4646.00
2022-11-20T09:55:30.542Z,5017.00
2022-11-20T09:56:26.146Z,5056.00
2022-11-20T09:57:21.235Z,5112.00
2022-11-20T09:58:16.718Z,5234.00
2022-11-20T09:59:12.004Z,5630.00
2022-11-20T10:00:07.076Z,5892.00
2022-11-20T10:01:02.211Z,6301.00
2022-11-20T10:01:57.163Z,6264.00
2022-11-20T10:02:55.936Z,5739.00
2022-11-20T10:03:51.294Z,5986.00
2022-11-20T10:04:46.695Z,6630.00
2022-11-20T10:05:42.045Z,6713.00
2022-11-20T10:06:37.611Z,6706.00
2022-11-20T10:07:33.411Z,6541.00
2022-11-20T10:08:28.078Z,6714.00
2022-11-20T10:09:23.433Z,6778.00
2022-11-20T10:10:18.397Z,6877.00
2022-11-20T10:11:13.109Z,6642.00
2022-11-20T10:12:08.223Z,6501.00
2022-11-20T10:13:03.263Z,6881.00
2022-11-20T10:13:58.390Z,6713.00
2022-11-20T10:14:53.368Z,6879.00
2022-11-20T10:15:49.539Z,7355.00
2022-11-20T10:16:44.506Z,7385.00
2022-11-20T10:17:39.621Z,7627.00
2022-11-20T10:18:34.726Z,7673.00
2022-11-20T10:19:29.715Z,7727.00
2022-11-20T10:20:24.826Z,7783.00
2022-11-20T10:21:20.063Z,7704.00
2022-11-20T10:22:15.054Z,7358.00
2022-11-20T10:23:10.425Z,7399.00
2022-11-20T10:24:05.826Z,6823.00
2022-11-20T10:25:01.363Z,6163.00
2022-11-20T10:25:56.664Z,5276.00
2022-11-20T10:26:52.037Z,5272.00
2022-11-20T10:27:47.442Z,4965.00
2022-11-20T10:28:47.473Z,4613.00
2022-11-20T10:29:39.252Z,4506.00
2022-11-20T10:30:33.581Z,4536.00
2022-11-20T10:31:28.963Z,4755.00
2022-11-20T10:32:24.351Z,5139.00
2022-11-20T10:33:19.731Z,5733.00
2022-11-20T10:34:19.394Z,5625.00
2022-11-20T10:35:11.661Z,5085.00
2022-11-20T10:36:05.658Z,4557.00
2022-11-20T10:37:00.728Z,4537.00
2022-11-20T10:37:55.871Z,5167.00
2022-11-20T10:38:54.468Z,5330.00
2022-11-20T10:39:49.920Z,5692.00
2022-11-20T10:40:45.356Z,5591.00
2022-11-20T10:41:40.483Z,5913.00
2022-11-20T10:42:35.854Z,5539.00
2022-11-20T10:43:31.278Z,5666.00
2022-11-20T10:44:26.781Z,5518.00
2022-11-20T10:45:22.020Z,5960.00
2022-11-20T10:46:17.275Z,6694.00
2022-11-20T10:47:12.775Z,6604.00
2022-11-20T10:48:08.127Z,5931.00
2022-11-20T10:49:03.473Z,4662.00
2022-11-20T10:49:58.690Z,4018.00
2022-11-20T10:50:54.258Z,3462.00
2022-11-20T10:51:49.635Z,3384.00
2022-11-20T10:52:44.705Z,3515.00
2022-11-20T10:53:39.849Z,3999.00
2022-11-20T10:54:34.949Z,4368.00
2022-11-20T10:55:29.993Z,4735.00
2022-11-20T10:56:25.171Z,4859.00
2022-11-20T10:57:20.115Z,5519.00
2022-11-20T10:58:15.231Z,6462.00
2022-11-20T10:59:11.261Z,6856.00
2022-11-20T11:00:05.438Z,7359.00
2022-11-20T11:01:00.761Z,7863.00
2022-11-20T11:01:55.587Z,7999.00
2022-11-20T11:02:50.819Z,7503.00
2022-11-20T11:03:45.832Z,6635.00
2022-11-20T11:04:40.786Z,6797.00
2022-11-20T11:05:36.096Z,5975.00
2022-11-20T11:06:31.560Z,5854.00
2022-11-20T11:07:26.858Z,6111.00
2022-11-20T11:08:22.281Z,6551.00
2022-11-20T11:09:18.029Z,6926.00
2022-11-20T11:10:13.559Z,6026.00
2022-11-20T11:11:08.984Z,5409.00
2022-11-20T11:12:07.126Z,4045.00
2022-11-20T11:13:01.394Z,3544.00
2022-11-20T11:13:56.628Z,3586.00
2022-11-20T11:14:52.004Z,3192.00
2022-11-20T11:15:47.502Z,3266.00
2022-11-20T11:16:42.715Z,3015.00
2022-11-20T11:17:38.096Z,2866.00
2022-11-20T11:18:33.349Z,3329.00
2022-11-20T11:19:28.614Z,3802.00
2022-11-20T11:20:23.430Z,3808.00
2022-11-20T11:21:18.494Z,3844.00
2022-11-20T11:22:13.468Z,4137.00
2022-11-20T11:23:08.437Z,4139.00
2022-11-20T11:24:27.066Z,3897.00
2022-11-20T11:25:00.748Z,3594.00
2022-11-20T11:25:54.753Z,3314.00
2022-11-20T11:26:49.877Z,3091.00
2022-11-20T11:27:44.866Z,2818.00
2022-11-20T11:28:40.012Z,2813.00
2022-11-20T11:29:34.994Z,2942.00
2022-11-20T11:30:29.992Z,2971.00
2022-11-20T11:31:25.123Z,3042.00
2022-11-20T11:32:20.165Z,3271.00
2022-11-20T11:33:15.244Z,3502.00
2022-11-20T11:34:10.287Z,4044.00
2022-11-20T11:35:05.582Z,4176.00
2022-11-20T11:36:00.433Z,4410.00
2022-11-20T11:36:55.530Z,5168.00
2022-11-20T11:37:50.715Z,4775.00
2022-11-20T11:38:45.917Z,5689.00
2022-11-20T11:39:41.455Z,5852.00
2022-11-20T11:40:36.686Z,5768.00
2022-11-20T11:41:32.208Z,5717.00
2022-11-20T11:42:27.602Z,6154.00
2022-11-20T11:43:22.830Z,6992.00
2022-11-20T11:44:17.970Z,6985.00
2022-11-20T11:45:13.033Z,6381.00